Altamont, Tennessee
Current Conditions -  °F | °C
As of 5:15 AM on Monday 22 Dec 2014 (Local Time) from KRNC Reporting Station
Overcast Overcast  
Wind Chill:   Ceiling: 1700
Heat Index:   Visibility: 10mi
Dew Point:   Wind: 0mph
Humidity: 87%   Direction: NA
Pressure: 29.97"   Gusts: NA
Location:  35.43°N, 85.72°W
Report Text: KRNC 221115Z AUTO 00000KT 10SM OVC017 09/07 A2997 RMK
Loading
Personal Weather Stations






























Interactive Weather Map New forecast layout! Learn more

10-Day Weather Forecast

Advertisements
Track Severe Weather on mobile